createdAt,value
2022-11-18T00:01:11.687Z,99303.11
2022-11-18T00:03:46.149Z,99303.73
2022-11-18T00:06:20.415Z,99302.57
2022-11-18T00:08:53.042Z,99306.11
2022-11-18T00:11:44.999Z,99309.71
2022-11-18T00:14:20.400Z,99308.10
2022-11-18T00:16:55.762Z,99307.20
2022-11-18T00:19:30.156Z,99306.38
2022-11-18T00:22:02.685Z,99304.17
2022-11-18T00:24:35.133Z,99303.38
2022-11-18T00:27:07.533Z,99296.30
2022-11-18T00:29:40.052Z,99296.62
2022-11-18T00:32:12.234Z,99297.99
2022-11-18T00:34:44.192Z,99298.02
2022-11-18T00:37:16.302Z,99295.29
2022-11-18T00:39:48.243Z,99292.03
2022-11-18T00:42:38.072Z,99296.16
2022-11-18T00:45:11.426Z,99287.98
2022-11-18T00:47:43.382Z,99282.34
2022-11-18T00:50:16.185Z,99279.19
2022-11-18T00:52:48.469Z,99278.81
2022-11-18T00:55:20.601Z,99287.64
2022-11-18T00:57:52.513Z,99292.91
2022-11-18T01:00:24.607Z,99289.12
2022-11-18T01:02:56.543Z,99284.73
2022-11-18T01:05:28.531Z,99287.86
2022-11-18T01:08:00.445Z,99285.02
2022-11-18T01:10:32.663Z,99280.82
2022-11-18T01:13:23.989Z,99284.59
2022-11-18T01:15:57.789Z,99281.18
2022-11-18T01:18:32.049Z,99278.42
2022-11-18T01:21:06.680Z,99279.51
2022-11-18T01:23:38.671Z,99280.54
2022-11-18T01:26:13.142Z,99277.71
2022-11-18T01:28:45.749Z,99280.38
2022-11-18T01:31:19.987Z,99282.36
2022-11-18T01:33:52.379Z,99282.98
2022-11-18T01:36:27.421Z,99286.41
2022-11-18T01:38:57.799Z,99286.55
2022-11-18T01:41:29.992Z,99287.80
2022-11-18T01:44:04.543Z,99290.39
2022-11-18T01:46:36.863Z,99287.63
2022-11-18T01:49:12.691Z,99282.38
2022-11-18T01:51:49.455Z,99280.45
2022-11-18T01:54:25.658Z,99286.06
2022-11-18T01:57:00.947Z,99281.79
2022-11-18T01:59:37.210Z,99283.33
2022-11-18T02:02:12.734Z,99284.56
2022-11-18T02:04:48.768Z,99282.59
2022-11-18T02:07:22.416Z,99284.98
2022-11-18T02:09:57.327Z,99281.52
2022-11-18T02:12:29.419Z,99279.73
2022-11-18T02:15:02.585Z,99280.16
2022-11-18T02:17:46.125Z,99278.79
2022-11-18T02:20:32.328Z,99282.14
2022-11-18T02:23:33.311Z,99281.80
2022-11-18T02:26:47.080Z,99284.31
2022-11-18T02:29:22.372Z,99279.02
2022-11-18T02:31:59.950Z,99281.45
2022-11-18T02:34:50.106Z,99274.83
2022-11-18T02:37:32.599Z,99270.89
2022-11-18T02:40:09.548Z,99276.30
2022-11-18T02:42:44.557Z,99274.73
2022-11-18T02:45:18.004Z,99274.65
2022-11-18T02:47:51.506Z,99270.09
2022-11-18T02:50:28.562Z,99270.73
2022-11-18T02:53:04.467Z,99269.23
2022-11-18T02:55:39.864Z,99274.16
2022-11-18T02:58:13.235Z,99276.47
2022-11-18T03:00:45.760Z,99269.30
2022-11-18T03:03:29.321Z,99271.81
2022-11-18T03:06:10.680Z,99277.83
2022-11-18T03:08:48.455Z,99277.73
2022-11-18T03:11:24.082Z,99280.32
2022-11-18T03:14:11.583Z,99282.80
2022-11-18T03:16:55.297Z,99272.88
2022-11-18T03:19:35.863Z,99275.41
2022-11-18T03:22:17.450Z,99274.38
2022-11-18T03:24:57.210Z,99275.49
2022-11-18T03:27:34.822Z,99272.04
2022-11-18T03:30:11.668Z,99274.63
2022-11-18T03:32:46.732Z,99272.81
2022-11-18T03:35:19.545Z,99267.34
2022-11-18T03:37:53.728Z,99263.77
2022-11-18T03:40:30.556Z,99264.83
2022-11-18T03:43:07.310Z,99269.41
2022-11-18T03:45:43.648Z,99266.11
2022-11-18T03:48:19.450Z,99267.77
2022-11-18T03:50:56.715Z,99265.25
2022-11-18T03:53:32.130Z,99263.91
2022-11-18T03:56:16.911Z,99268.77
2022-11-18T03:58:52.316Z,99267.09
2022-11-18T04:01:33.265Z,99271.06
2022-11-18T04:04:06.153Z,99270.25
2022-11-18T04:06:43.198Z,99273.94
2022-11-18T04:09:20.221Z,99278.82
2022-11-18T04:12:05.290Z,99278.04
2022-11-18T04:14:39.338Z,99273.98
2022-11-18T04:17:14.410Z,99270.14
2022-11-18T04:19:46.712Z,99271.36
2022-11-18T04:22:19.464Z,99270.42
2022-11-18T04:24:51.386Z,99274.60
2022-11-18T04:27:23.289Z,99276.78
2022-11-18T04:29:55.200Z,99275.16
2022-11-18T04:32:27.137Z,99277.42
2022-11-18T04:34:59.143Z,99272.48
2022-11-18T04:37:31.195Z,99278.23
2022-11-18T04:40:03.157Z,99272.16
2022-11-18T04:42:35.430Z,99273.50
2022-11-18T04:45:10.011Z,99268.07
2022-11-18T04:47:42.333Z,99272.73
2022-11-18T04:50:14.363Z,99269.97
2022-11-18T04:52:46.530Z,99272.70
2022-11-18T04:55:18.811Z,99266.02
2022-11-18T04:57:50.766Z,99270.28
2022-11-18T05:00:23.576Z,99265.31
2022-11-18T05:02:55.641Z,99264.55
2022-11-18T05:05:27.470Z,99261.11
2022-11-18T05:07:59.823Z,99262.29
2022-11-18T05:10:31.760Z,99264.70
2022-11-18T05:13:03.672Z,99268.48
2022-11-18T05:15:35.609Z,99269.29
2022-11-18T05:18:08.112Z,99263.88
2022-11-18T05:20:41.869Z,99262.67
2022-11-18T05:23:13.908Z,99266.14
2022-11-18T05:25:45.896Z,99260.58
2022-11-18T05:28:17.937Z,99259.34
2022-11-18T05:30:49.875Z,99257.58
2022-11-18T05:33:21.811Z,99253.20
2022-11-18T05:35:55.258Z,99254.95
2022-11-18T05:38:27.404Z,99254.23
2022-11-18T05:40:59.313Z,99248.26
2022-11-18T05:43:32.176Z,99243.77
2022-11-18T05:46:05.057Z,99240.73
2022-11-18T05:48:36.971Z,99245.00
2022-11-18T05:51:09.356Z,99244.16
2022-11-18T05:53:41.256Z,99249.10
2022-11-18T05:56:20.592Z,99251.33
2022-11-18T05:58:52.532Z,99259.54
2022-11-18T06:01:28.769Z,99262.10
2022-11-18T06:04:03.035Z,99265.02
2022-11-18T06:06:35.006Z,99268.10
2022-11-18T06:09:09.559Z,99271.22
2022-11-18T06:11:44.373Z,99274.27
2022-11-18T06:14:20.874Z,99271.91
2022-11-18T06:16:57.554Z,99276.00
2022-11-18T06:19:29.949Z,99281.35
2022-11-18T06:22:02.319Z,99285.44
2022-11-18T06:24:34.587Z,99285.87
2022-11-18T06:27:07.169Z,99291.61
2022-11-18T06:29:39.080Z,99287.54
2022-11-18T06:32:11.253Z,99288.88
2022-11-18T06:34:43.186Z,99287.88
2022-11-18T06:37:20.753Z,99286.29
2022-11-18T06:39:53.028Z,99287.93
2022-11-18T06:42:39.069Z,99289.07
2022-11-18T06:45:13.976Z,99285.73
2022-11-18T06:47:44.429Z,99291.50
2022-11-18T06:50:17.011Z,99292.34
2022-11-18T06:52:49.253Z,99286.79
2022-11-18T06:55:21.294Z,99287.89
2022-11-18T06:57:53.232Z,99298.16
2022-11-18T07:00:25.513Z,99300.14
2022-11-18T07:02:57.439Z,99304.33
2022-11-18T07:05:29.353Z,99305.70
2022-11-18T07:08:01.267Z,99303.24
2022-11-18T07:10:33.443Z,99303.73
2022-11-18T07:13:05.422Z,99304.27
2022-11-18T07:15:37.506Z,99307.09
2022-11-18T07:18:09.425Z,99301.86
2022-11-18T07:20:41.363Z,99305.30
2022-11-18T07:23:13.250Z,99305.05
2022-11-18T07:25:45.498Z,99304.21
2022-11-18T07:28:17.458Z,99303.71
2022-11-18T07:30:49.448Z,99304.86
2022-11-18T07:33:21.308Z,99305.66
2022-11-18T07:35:53.223Z,99306.61
2022-11-18T07:38:25.465Z,99307.55
2022-11-18T07:40:57.713Z,99313.75
2022-11-18T07:43:29.622Z,99312.23
2022-11-18T07:46:09.572Z,99316.48
2022-11-18T07:48:41.970Z,99322.65
2022-11-18T07:51:14.932Z,99320.61
2022-11-18T07:53:47.434Z,99318.90
2022-11-18T07:56:19.578Z,99317.03
2022-11-18T07:58:55.535Z,99315.95
2022-11-18T08:01:29.271Z,99312.22
2022-11-18T08:04:07.780Z,99314.70
2022-11-18T08:06:40.665Z,99315.59
2022-11-18T08:09:13.501Z,99313.34
2022-11-18T08:11:45.413Z,99316.16
2022-11-18T08:14:17.299Z,99318.92
2022-11-18T08:16:49.315Z,99321.77
2022-11-18T08:19:21.365Z,99319.09
2022-11-18T08:21:53.957Z,99318.92
2022-11-18T08:24:26.510Z,99318.23
2022-11-18T08:26:58.653Z,99319.16
2022-11-18T08:29:31.665Z,99320.98
2022-11-18T08:32:03.679Z,99317.88
2022-11-18T08:34:36.130Z,99314.92
2022-11-18T08:37:08.067Z,99313.96
2022-11-18T08:39:40.187Z,99311.02
2022-11-18T08:42:13.044Z,99310.33
2022-11-18T08:44:44.898Z,99310.39
2022-11-18T08:47:16.894Z,99310.39
2022-11-18T08:49:48.883Z,99314.73
2022-11-18T08:52:20.796Z,99317.21
2022-11-18T08:54:52.784Z,99322.34
2022-11-18T08:57:24.823Z,99325.88
2022-11-18T08:59:57.249Z,99326.25
2022-11-18T09:02:29.287Z,99324.83
2022-11-18T09:05:01.124Z,99325.29
2022-11-18T09:07:33.277Z,99328.67
2022-11-18T09:10:06.013Z,99330.91
2022-11-18T09:12:37.960Z,99332.48
2022-11-18T09:15:13.919Z,99330.24
2022-11-18T09:17:46.366Z,99334.25
2022-11-18T09:20:22.853Z,99332.76
2022-11-18T09:22:54.903Z,99331.86
2022-11-18T09:25:26.865Z,99331.93
2022-11-18T09:27:59.047Z,99333.73
2022-11-18T09:30:30.972Z,99334.02
2022-11-18T09:33:02.893Z,99337.55
2022-11-18T09:35:35.055Z,99336.76
2022-11-18T09:38:07.016Z,99333.16
2022-11-18T09:40:45.814Z,99331.96
2022-11-18T09:43:28.326Z,99334.10
2022-11-18T09:46:09.453Z,99331.23
2022-11-18T09:48:58.851Z,99333.10
2022-11-18T09:51:35.653Z,99334.88
2022-11-18T09:54:09.766Z,99332.59
2022-11-18T09:56:42.675Z,99329.29
2022-11-18T09:59:16.842Z,99324.52
2022-11-18T10:01:49.909Z,99318.85
2022-11-18T10:04:23.636Z,99316.40
2022-11-18T10:06:55.749Z,99318.19
2022-11-18T10:09:37.986Z,99321.81
2022-11-18T10:12:24.102Z,99323.46
2022-11-18T10:15:12.425Z,99325.36
2022-11-18T10:17:57.195Z,99323.02
2022-11-18T10:20:41.056Z,99329.16
2022-11-18T10:23:18.148Z,99326.86
2022-11-18T10:25:50.078Z,99327.63
2022-11-18T10:28:25.349Z,99328.48
2022-11-18T10:31:04.705Z,99329.77
2022-11-18T10:33:37.973Z,99332.42
2022-11-18T10:36:27.886Z,99335.13
2022-11-18T10:39:10.880Z,99336.83
2022-11-18T10:41:48.474Z,99341.21
2022-11-18T10:44:33.086Z,99340.60
2022-11-18T10:47:24.966Z,99344.08
2022-11-18T10:49:58.875Z,99347.81
2022-11-18T10:52:31.785Z,99352.45
2022-11-18T10:55:24.817Z,99351.45
2022-11-18T10:58:04.259Z,99355.73
2022-11-18T11:00:48.180Z,99357.36
2022-11-18T11:03:36.193Z,99360.60
2022-11-18T11:06:38.650Z,99365.20
2022-11-18T11:09:27.428Z,99362.02
2022-11-18T11:12:03.282Z,99362.80
2022-11-18T11:14:46.338Z,99359.23
2022-11-18T11:17:20.996Z,99361.11
2022-11-18T11:20:03.004Z,99361.52
2022-11-18T11:22:35.276Z,99359.40
2022-11-18T11:25:14.125Z,99361.78
2022-11-18T11:30:53.614Z,99361.83
2022-11-18T11:33:43.547Z,99366.58
2022-11-18T11:36:32.970Z,99368.02
2022-11-18T11:39:29.816Z,99362.34
2022-11-18T11:42:12.045Z,99369.80
2022-11-18T11:44:59.390Z,99370.00
2022-11-18T11:47:50.208Z,99362.67
2022-11-18T11:50:29.664Z,99364.67
2022-11-18T11:53:16.065Z,99366.97
2022-11-18T11:56:03.160Z,99369.20
2022-11-18T11:58:54.177Z,99373.45
2022-11-18T12:01:32.865Z,99378.64
2022-11-18T12:04:16.306Z,99379.45
2022-11-18T12:06:52.735Z,99375.48
2022-11-18T12:09:35.977Z,99378.83
2022-11-18T12:12:27.618Z,99379.61
2022-11-18T12:15:08.211Z,99381.11
2022-11-18T12:17:48.133Z,99380.14
2022-11-18T12:20:41.423Z,99385.02
2022-11-18T12:23:15.922Z,99387.27
2022-11-18T12:25:58.366Z,99387.46
2022-11-18T12:28:33.521Z,99393.53
2022-11-18T12:31:33.590Z,99395.53
2022-11-18T12:34:33.073Z,99396.71
2022-11-18T12:37:36.039Z,99398.92
2022-11-18T12:40:09.800Z,99403.33
2022-11-18T12:43:04.773Z,99403.94
2022-11-18T12:46:00.189Z,99404.59
2022-11-18T12:48:42.926Z,99407.40
2022-11-18T12:51:46.816Z,99408.53
2022-11-18T12:54:29.173Z,99410.18
2022-11-18T12:57:03.772Z,99407.58
2022-11-18T12:59:39.190Z,99412.75
2022-11-18T13:02:25.900Z,99411.96
2022-11-18T13:05:09.903Z,99417.16
2022-11-18T13:08:06.665Z,99419.42
2022-11-18T13:10:45.489Z,99419.05
2022-11-18T13:13:26.823Z,99415.81
2022-11-18T13:16:23.340Z,99418.84
2022-11-18T13:18:56.328Z,99419.70
2022-11-18T13:21:48.460Z,99418.83
2022-11-18T13:24:22.344Z,99422.23
2022-11-18T13:26:59.382Z,99425.68
2022-11-18T13:29:39.712Z,99421.66
2022-11-18T13:32:23.212Z,99424.34
2022-11-18T13:34:57.234Z,99428.90
2022-11-18T13:37:31.667Z,99433.42
2022-11-18T13:40:04.030Z,99437.51
2022-11-18T13:42:35.991Z,99438.00
2022-11-18T13:45:14.179Z,99444.13
2022-11-18T13:47:49.670Z,99445.77
2022-11-18T13:50:31.440Z,99446.64
2022-11-18T13:53:13.232Z,99449.42
2022-11-18T13:55:50.265Z,99452.80
2022-11-18T13:59:02.773Z,99458.84
2022-11-18T14:01:31.543Z,99458.02
2022-11-18T14:04:06.168Z,99460.77
2022-11-18T14:06:39.771Z,99467.46
2022-11-18T14:09:22.126Z,99462.69
2022-11-18T14:12:07.543Z,99464.62
2022-11-18T14:14:38.956Z,99466.44
2022-11-18T14:17:21.915Z,99466.38
2022-11-18T14:19:56.760Z,99463.55
2022-11-18T14:22:31.022Z,99467.41
2022-11-18T14:25:06.138Z,99465.98
2022-11-18T14:27:37.519Z,99462.22
2022-11-18T14:30:32.111Z,99464.62
2022-11-18T14:33:12.953Z,99463.54
2022-11-18T14:35:49.448Z,99461.89
2022-11-18T14:41:43.633Z,99469.98
2022-11-18T14:44:17.237Z,99471.18
2022-11-18T14:46:52.422Z,99472.61
2022-11-18T14:49:26.200Z,99471.36
2022-11-18T14:51:58.509Z,99472.55
2022-11-18T14:54:31.337Z,99474.23
2022-11-18T14:57:06.205Z,99478.11
2022-11-18T14:59:38.072Z,99479.81
2022-11-18T15:02:16.411Z,99483.69
2022-11-18T15:04:50.824Z,99486.38
2022-11-18T15:07:24.080Z,99488.98
2022-11-18T15:09:56.090Z,99487.71
2022-11-18T15:12:28.052Z,99487.44
2022-11-18T15:15:00.113Z,99484.11
2022-11-18T15:17:35.728Z,99491.98
2022-11-18T15:20:15.127Z,99491.64
2022-11-18T15:22:47.273Z,99495.41
2022-11-18T15:25:19.287Z,99497.90
2022-11-18T15:27:51.229Z,99503.49
2022-11-18T15:30:23.213Z,99505.13
2022-11-18T15:32:55.125Z,99507.77
2022-11-18T15:35:27.090Z,99505.04
2022-11-18T15:37:58.951Z,99506.61
2022-11-18T15:40:30.913Z,99506.41
2022-11-18T15:43:02.832Z,99504.63
2022-11-18T15:45:34.841Z,99508.59
2022-11-18T15:48:07.034Z,99509.36
2022-11-18T15:50:39.331Z,99512.92
2022-11-18T15:53:11.271Z,99513.46
2022-11-18T15:55:43.364Z,99518.35
2022-11-18T15:58:17.292Z,99515.77
2022-11-18T16:00:49.535Z,99521.16
2022-11-18T16:03:21.847Z,99522.46
2022-11-18T16:05:54.741Z,99524.35
2022-11-18T16:08:26.658Z,99530.63
2022-11-18T16:11:16.979Z,99530.04
2022-11-18T16:13:48.816Z,99533.23
2022-11-18T16:16:25.513Z,99536.14
2022-11-18T16:18:58.424Z,99534.96
2022-11-18T16:21:33.384Z,99536.69
2022-11-18T16:24:07.750Z,99532.52
2022-11-18T16:26:40.155Z,99538.71
2022-11-18T16:29:15.313Z,99537.30
2022-11-18T16:31:50.974Z,99537.30
2022-11-18T16:34:24.744Z,99535.52
2022-11-18T16:36:59.813Z,99536.77
2022-11-18T16:39:31.819Z,99538.89
2022-11-18T16:42:09.168Z,99541.88
2022-11-18T16:44:41.302Z,99546.41
2022-11-18T16:47:15.366Z,99551.55
2022-11-18T16:49:47.407Z,99553.48
2022-11-18T16:52:19.381Z,99557.59
2022-11-18T16:54:52.461Z,99558.68
2022-11-18T16:57:25.424Z,99559.84
2022-11-18T16:59:57.356Z,99566.40
2022-11-18T17:02:29.344Z,99567.78
2022-11-18T17:05:01.300Z,99573.59
2022-11-18T17:07:38.307Z,99578.30
2022-11-18T17:10:20.647Z,99582.49
2022-11-18T17:12:52.945Z,99587.30
2022-11-18T17:15:25.317Z,99589.60
2022-11-18T17:17:58.076Z,99595.36
2022-11-18T17:20:29.970Z,99592.23
2022-11-18T17:23:01.872Z,99597.04
2022-11-18T17:25:34.688Z,99594.78
2022-11-18T17:28:06.823Z,99604.68
2022-11-18T17:30:39.069Z,99610.07
2022-11-18T17:33:11.032Z,99615.98
2022-11-18T17:35:42.918Z,99618.22
2022-11-18T17:38:15.132Z,99621.69
2022-11-18T17:40:47.077Z,99625.46
2022-11-18T17:43:19.964Z,99632.04
2022-11-18T17:45:53.948Z,99636.17
2022-11-18T17:48:27.189Z,99641.80
2022-11-18T17:51:06.296Z,99641.02
2022-11-18T17:53:43.207Z,99646.71
2022-11-18T17:56:15.805Z,99648.58
2022-11-18T17:58:49.512Z,99648.64
2022-11-18T18:01:22.800Z,99646.72
2022-11-18T18:03:54.871Z,99646.30
2022-11-18T18:06:27.022Z,99646.69
2022-11-18T18:09:00.076Z,99646.25
2022-11-18T18:11:32.653Z,99647.94
2022-11-18T18:14:13.869Z,99648.56
2022-11-18T18:16:50.207Z,99646.65
2022-11-18T18:19:24.212Z,99646.96
2022-11-18T18:21:56.741Z,99649.18
2022-11-18T18:24:28.752Z,99651.45
2022-11-18T18:27:00.698Z,99653.84
2022-11-18T18:29:33.013Z,99654.09
2022-11-18T18:32:05.411Z,99655.07
2022-11-18T18:34:37.348Z,99650.48
2022-11-18T18:37:09.234Z,99650.33
2022-11-18T18:39:41.274Z,99650.64
2022-11-18T18:42:13.163Z,99654.16
2022-11-18T18:45:02.814Z,99651.02
2022-11-18T18:47:36.718Z,99651.95
2022-11-18T18:50:10.742Z,99647.90
2022-11-18T18:52:42.750Z,99650.83
2022-11-18T18:55:14.739Z,99650.02
2022-11-18T18:57:46.650Z,99651.08
2022-11-18T19:00:19.991Z,99649.89
2022-11-18T19:02:51.958Z,99649.23
2022-11-18T19:05:39.085Z,99650.33
2022-11-18T19:08:16.033Z,99653.88
2022-11-18T19:10:48.220Z,99657.14
2022-11-18T19:13:20.190Z,99657.71
2022-11-18T19:15:52.311Z,99658.94
2022-11-18T19:18:24.644Z,99656.52
2022-11-18T19:20:56.619Z,99660.61
2022-11-18T19:23:33.062Z,99662.59
2022-11-18T19:26:05.672Z,99664.86
2022-11-18T19:28:37.940Z,99665.28
2022-11-18T19:31:14.133Z,99663.24
2022-11-18T19:33:46.177Z,99664.70
2022-11-18T19:36:18.992Z,99658.88
2022-11-18T19:38:53.213Z,99659.58
2022-11-18T19:41:25.126Z,99666.92
2022-11-18T19:43:57.115Z,99667.89
2022-11-18T19:46:31.575Z,99674.27
2022-11-18T19:49:03.831Z,99675.61
2022-11-18T19:51:37.103Z,99673.88
2022-11-18T19:54:09.429Z,99673.40
2022-11-18T19:56:41.395Z,99673.77
2022-11-18T19:59:14.556Z,99672.61
2022-11-18T20:01:46.624Z,99669.65
2022-11-18T20:04:18.588Z,99674.30
2022-11-18T20:06:50.804Z,99672.42
2022-11-18T20:09:22.764Z,99674.88
2022-11-18T20:11:54.682Z,99675.59
2022-11-18T20:14:26.641Z,99674.81
2022-11-18T20:17:10.007Z,99674.76
2022-11-18T20:20:07.671Z,99683.42
2022-11-18T20:22:39.915Z,99684.41
2022-11-18T20:25:13.801Z,99683.25
2022-11-18T20:27:45.789Z,99690.20
2022-11-18T20:30:18.752Z,99689.81
2022-11-18T20:32:50.816Z,99692.44
2022-11-18T20:35:23.119Z,99695.64
2022-11-18T20:37:55.383Z,99699.94
2022-11-18T20:40:28.731Z,99699.61
2022-11-18T20:43:16.158Z,99702.07
2022-11-18T20:45:55.997Z,99701.61
2022-11-18T20:48:28.443Z,99700.94
2022-11-18T20:51:03.726Z,99701.40
2022-11-18T20:53:37.987Z,99700.60
2022-11-18T20:56:10.493Z,99702.42
2022-11-18T20:58:42.935Z,99704.05
2022-11-18T21:01:16.696Z,99704.73
2022-11-18T21:03:53.181Z,99703.10
2022-11-18T21:06:26.949Z,99705.34
2022-11-18T21:09:00.263Z,99710.05
2022-11-18T21:11:34.359Z,99704.40
2022-11-18T21:14:23.809Z,99705.17
2022-11-18T21:17:00.685Z,99704.39
2022-11-18T21:19:33.983Z,99701.55
2022-11-18T21:22:05.988Z,99710.46
2022-11-18T21:24:38.032Z,99711.81
2022-11-18T21:27:10.048Z,99715.39
2022-11-18T21:29:42.929Z,99716.69
2022-11-18T21:32:15.199Z,99717.39
2022-11-18T21:34:47.265Z,99715.23
2022-11-18T21:37:19.227Z,99713.06
2022-11-18T21:39:51.218Z,99714.34
2022-11-18T21:42:23.357Z,99710.38
2022-11-18T21:44:55.662Z,99710.99
2022-11-18T21:47:27.619Z,99711.36
2022-11-18T21:49:59.508Z,99709.42
2022-11-18T21:52:31.503Z,99705.15
2022-11-18T21:55:03.497Z,99701.06
2022-11-18T21:57:35.832Z,99706.30
2022-11-18T22:00:10.254Z,99707.89
2022-11-18T22:02:43.551Z,99710.69
2022-11-18T22:05:15.991Z,99712.85
2022-11-18T22:07:47.910Z,99712.65
2022-11-18T22:10:20.242Z,99709.08
2022-11-18T22:12:52.691Z,99707.08
2022-11-18T22:15:25.285Z,99711.30
2022-11-18T22:17:57.402Z,99709.02
2022-11-18T22:20:29.262Z,99709.30
2022-11-18T22:23:02.660Z,99706.20
2022-11-18T22:25:34.927Z,99707.96
2022-11-18T22:28:09.069Z,99711.88
2022-11-18T22:30:41.418Z,99710.98
2022-11-18T22:33:13.385Z,99712.50
2022-11-18T22:35:45.346Z,99709.10
2022-11-18T22:38:17.364Z,99710.34
2022-11-18T22:40:49.630Z,99716.20
2022-11-18T22:43:21.570Z,99715.88
2022-11-18T22:46:01.547Z,99717.40
2022-11-18T22:48:34.582Z,99714.15
2022-11-18T22:51:08.108Z,99717.51
2022-11-18T22:53:40.123Z,99717.27
2022-11-18T22:56:14.747Z,99715.14
2022-11-18T22:58:46.992Z,99716.92
2022-11-18T23:01:20.851Z,99713.78
2022-11-18T23:03:53.991Z,99714.55
2022-11-18T23:06:25.979Z,99717.80
2022-11-18T23:08:57.892Z,99715.49
2022-11-18T23:11:47.468Z,99716.17
2022-11-18T23:14:19.431Z,99714.95
2022-11-18T23:16:51.371Z,99715.65
2022-11-18T23:19:23.420Z,99720.95
2022-11-18T23:21:55.756Z,99720.04
2022-11-18T23:24:28.041Z,99716.46
2022-11-18T23:27:00.050Z,99715.92
2022-11-18T23:29:32.098Z,99716.58
2022-11-18T23:32:04.636Z,99715.79
2022-11-18T23:34:36.652Z,99716.71
2022-11-18T23:37:08.640Z,99714.71
2022-11-18T23:39:41.012Z,99716.36
2022-11-18T23:42:12.974Z,99709.77
2022-11-18T23:44:50.296Z,99714.37
2022-11-18T23:47:22.380Z,99713.85
2022-11-18T23:49:54.292Z,99715.89
2022-11-18T23:52:26.384Z,99719.08
2022-11-18T23:54:59.576Z,99716.77
2022-11-18T23:57:31.490Z,99709.86
